Moutfort, Luxembourg
Current Conditions -  °F | °C
As of 2:20 AM on Monday 24 Nov 2014 (Local Time) from ELLX Reporting Station
NA  
Wind Chill: 46°   Ceiling: NA
Heat Index: 46°   Visibility: 6mi
Dew Point: 45°   Wind: 1mph
Humidity: 93%   Direction: NA
Pressure: 30.06"   Gusts: NA
Location:  49.59°N, 6.26°E
Report Text: ELLX 240120Z AUTO VRB01KT 9999 NDV 08/07 Q1018
Loading
Personal Weather Stations






























Interactive Weather Map New forecast layout! Learn more

10-Day Weather Forecast

Advertisements
Track Severe Weather on mobile